Accueil
METAR-TAF:

METAR-TAF

Aéroports :

Aéroport de Londres-Southend

Londres-Southend, Angleterre

latitude: 51-34N, longitude: 000-42E, altitude: 15 m

Observation

Le bulletin a été fait il y a 15 minutes, à 19:20 UTC
Vent 4 kt de ouest, variant entre ouest et nord/nord-ouest
Température 19°C
Humidité 73%
Pression 1019 hPa
Visibilité 10 km ou plus
Nuages fragmentés à une hauteur de 3200 ft

METAR: EGMC 241920Z 28004KT 260V330 9999 BKN032 19/14 Q1019

Heure: 20:35 (19:35 UTC)

Prévision

Le bulletin a été fait il y a 2 heures et 37 minutes, à 16:58 UTC
Prévision valable du 24 à 18 UTC au 25 à 03 UTC
Vent 5 kt de ouest
Visibilité 10 km ou plus
Nuages épars à une hauteur de 3000 ft
Temporairement
du 24 à 22 UTC au 25 à 03 UTC
Visibilité: 6000 m
Nuages fragmentés à une hauteur de 1000 ft
averses de pluie

TAF: EGMC 241658Z 2418/2503 27005KT 9999 SCT030 TEMPO 2422/2503 6000 SHRA BKN010

Observations et prévisions météorologiques de plus de 4000 aéroports (messages METAR et TAF).

Les stations disponibles sont représentées par des disques jaunes et rouges sur la carte.

Passer la souris dessus pour voir le nom de la station.

Cliquer dessus pour voir les observations et prévisions météorologiques.

Pour changer de carte: cliquez sur les boutons verts avec une croix noire pour zoomer, sur le bouton vert avec un tiret pour effectuer un zoom arrière, ou sur les flèches vertes pour les cartes adjacentes.


METAR-TAF: